sensor_id;sensor_type;location;lat;lon;timestamp;P1;durP1;ratioP1;P2;durP2;ratioP2
3667;SDS011;24099;47.102;15.440;2023-12-20T00:01:59;2.38;;;1.55;;
3667;SDS011;24099;47.102;15.440;2023-12-20T00:04:27;3.58;;;1.45;;
3667;SDS011;24099;47.102;15.440;2023-12-20T00:07:00;2.55;;;1.40;;
3667;SDS011;24099;47.102;15.440;2023-12-20T00:09:27;2.03;;;1.35;;
3667;SDS011;24099;47.102;15.440;2023-12-20T00:11:55;2.70;;;1.70;;
3667;SDS011;24099;47.102;15.440;2023-12-20T00:14:23;5.93;;;1.88;;
3667;SDS011;24099;47.102;15.440;2023-12-20T00:16:50;4.47;;;1.73;;
3667;SDS011;24099;47.102;15.440;2023-12-20T00:19:19;3.47;;;1.40;;
3667;SDS011;24099;47.102;15.440;2023-12-20T00:21:46;2.00;;;1.45;;
3667;SDS011;24099;47.102;15.440;2023-12-20T00:24:14;3.40;;;1.65;;
3667;SDS011;24099;47.102;15.440;2023-12-20T00:26:42;1.50;;;1.02;;
3667;SDS011;24099;47.102;15.440;2023-12-20T00:29:10;2.15;;;1.80;;
3667;SDS011;24099;47.102;15.440;2023-12-20T00:31:37;5.55;;;2.22;;
3667;SDS011;24099;47.102;15.440;2023-12-20T00:34:05;3.65;;;2.08;;
3667;SDS011;24099;47.102;15.440;2023-12-20T00:36:34;6.30;;;2.05;;
3667;SDS011;24099;47.102;15.440;2023-12-20T00:39:01;2.78;;;1.63;;
3667;SDS011;24099;47.102;15.440;2023-12-20T00:41:29;7.30;;;1.42;;
3667;SDS011;24099;47.102;15.440;2023-12-20T00:43:57;2.33;;;1.70;;
3667;SDS011;24099;47.102;15.440;2023-12-20T00:46:24;4.25;;;2.05;;
3667;SDS011;24099;47.102;15.440;2023-12-20T00:48:52;3.65;;;1.92;;
3667;SDS011;24099;47.102;15.440;2023-12-20T00:51:19;2.30;;;1.50;;
3667;SDS011;24099;47.102;15.440;2023-12-20T00:53:49;3.88;;;2.13;;
3667;SDS011;24099;47.102;15.440;2023-12-20T00:56:20;2.72;;;1.50;;
3667;SDS011;24099;47.102;15.440;2023-12-20T00:58:47;4.43;;;1.70;;
3667;SDS011;24099;47.102;15.440;2023-12-20T01:01:15;3.60;;;1.67;;
3667;SDS011;24099;47.102;15.440;2023-12-20T01:03:42;4.68;;;1.80;;
3667;SDS011;24099;47.102;15.440;2023-12-20T01:06:10;2.70;;;1.50;;
3667;SDS011;24099;47.102;15.440;2023-12-20T01:08:37;3.28;;;1.45;;
3667;SDS011;24099;47.102;15.440;2023-12-20T01:11:06;1.33;;;1.15;;
3667;SDS011;24099;47.102;15.440;2023-12-20T01:13:34;3.30;;;1.80;;
3667;SDS011;24099;47.102;15.440;2023-12-20T01:16:02;3.08;;;1.75;;
3667;SDS011;24099;47.102;15.440;2023-12-20T01:18:31;3.50;;;1.65;;
3667;SDS011;24099;47.102;15.440;2023-12-20T01:21:01;5.22;;;1.77;;
3667;SDS011;24099;47.102;15.440;2023-12-20T01:23:29;7.72;;;1.48;;
3667;SDS011;24099;47.102;15.440;2023-12-20T01:25:57;1.98;;;1.25;;
3667;SDS011;24099;47.102;15.440;2023-12-20T01:28:26;3.67;;;2.05;;
3667;SDS011;24099;47.102;15.440;2023-12-20T01:30:53;3.97;;;1.88;;
3667;SDS011;24099;47.102;15.440;2023-12-20T01:33:21;2.75;;;1.38;;
3667;SDS011;24099;47.102;15.440;2023-12-20T01:35:48;2.20;;;1.45;;
3667;SDS011;24099;47.102;15.440;2023-12-20T01:38:16;4.88;;;1.75;;
3667;SDS011;24099;47.102;15.440;2023-12-20T01:40:45;4.03;;;1.60;;
3667;SDS011;24099;47.102;15.440;2023-12-20T01:43:12;4.78;;;1.77;;
3667;SDS011;24099;47.102;15.440;2023-12-20T01:45:42;3.78;;;1.58;;
3667;SDS011;24099;47.102;15.440;2023-12-20T01:48:10;2.78;;;1.77;;
3667;SDS011;24099;47.102;15.440;2023-12-20T01:50:37;10.15;;;1.90;;
3667;SDS011;24099;47.102;15.440;2023-12-20T01:53:06;3.90;;;1.90;;
3667;SDS011;24099;47.102;15.440;2023-12-20T01:55:36;3.92;;;1.58;;
3667;SDS011;24099;47.102;15.440;2023-12-20T01:58:06;5.40;;;1.77;;
3667;SDS011;24099;47.102;15.440;2023-12-20T02:00:35;3.28;;;2.03;;
3667;SDS011;24099;47.102;15.440;2023-12-20T02:03:04;3.38;;;1.88;;
3667;SDS011;24099;47.102;15.440;2023-12-20T02:05:33;3.63;;;2.25;;
3667;SDS011;24099;47.102;15.440;2023-12-20T02:08:02;4.05;;;1.70;;
3667;SDS011;24099;47.102;15.440;2023-12-20T02:10:30;3.22;;;2.03;;
3667;SDS011;24099;47.102;15.440;2023-12-20T02:12:58;3.00;;;1.70;;
3667;SDS011;24099;47.102;15.440;2023-12-20T02:15:26;3.53;;;1.70;;
3667;SDS011;24099;47.102;15.440;2023-12-20T02:17:53;3.50;;;2.13;;
3667;SDS011;24099;47.102;15.440;2023-12-20T02:20:23;2.47;;;1.77;;
3667;SDS011;24099;47.102;15.440;2023-12-20T02:22:52;3.03;;;1.60;;
3667;SDS011;24099;47.102;15.440;2023-12-20T02:25:19;7.70;;;1.63;;
3667;SDS011;24099;47.102;15.440;2023-12-20T02:27:47;4.25;;;1.70;;
3667;SDS011;24099;47.102;15.440;2023-12-20T02:30:16;1.67;;;1.55;;
3667;SDS011;24099;47.102;15.440;2023-12-20T02:32:43;2.75;;;1.70;;
3667;SDS011;24099;47.102;15.440;2023-12-20T02:35:11;1.88;;;1.38;;
3667;SDS011;24099;47.102;15.440;2023-12-20T02:37:38;1.38;;;1.17;;
3667;SDS011;24099;47.102;15.440;2023-12-20T02:40:08;5.03;;;2.13;;
3667;SDS011;24099;47.102;15.440;2023-12-20T02:42:36;2.75;;;1.67;;
3667;SDS011;24099;47.102;15.440;2023-12-20T02:45:04;1.95;;;1.60;;
3667;SDS011;24099;47.102;15.440;2023-12-20T02:47:32;2.00;;;1.35;;
3667;SDS011;24099;47.102;15.440;2023-12-20T02:49:59;2.78;;;1.80;;
3667;SDS011;24099;47.102;15.440;2023-12-20T02:52:27;2.58;;;1.67;;
3667;SDS011;24099;47.102;15.440;2023-12-20T02:54:55;4.05;;;1.80;;
3667;SDS011;24099;47.102;15.440;2023-12-20T02:57:24;5.00;;;1.83;;
3667;SDS011;24099;47.102;15.440;2023-12-20T02:59:52;5.25;;;2.05;;
3667;SDS011;24099;47.102;15.440;2023-12-20T03:02:20;4.40;;;2.15;;
3667;SDS011;24099;47.102;15.440;2023-12-20T03:04:47;1.98;;;1.58;;
3667;SDS011;24099;47.102;15.440;2023-12-20T03:07:15;4.03;;;1.73;;
3667;SDS011;24099;47.102;15.440;2023-12-20T03:09:42;4.50;;;2.10;;
3667;SDS011;24099;47.102;15.440;2023-12-20T03:12:10;4.90;;;2.13;;
3667;SDS011;24099;47.102;15.440;2023-12-20T03:14:39;2.85;;;1.80;;
3667;SDS011;24099;47.102;15.440;2023-12-20T03:17:06;1.90;;;1.33;;
3667;SDS011;24099;47.102;15.440;2023-12-20T03:19:34;5.47;;;2.00;;
3667;SDS011;24099;47.102;15.440;2023-12-20T03:22:01;2.17;;;1.88;;
3667;SDS011;24099;47.102;15.440;2023-12-20T03:24:29;4.88;;;2.10;;
3667;SDS011;24099;47.102;15.440;2023-12-20T03:26:57;3.72;;;1.95;;
3667;SDS011;24099;47.102;15.440;2023-12-20T03:29:24;3.65;;;1.80;;
3667;SDS011;24099;47.102;15.440;2023-12-20T03:31:53;2.72;;;1.75;;
3667;SDS011;24099;47.102;15.440;2023-12-20T03:34:21;3.42;;;1.73;;
3667;SDS011;24099;47.102;15.440;2023-12-20T03:36:49;4.22;;;1.77;;
3667;SDS011;24099;47.102;15.440;2023-12-20T03:39:16;1.98;;;1.63;;
3667;SDS011;24099;47.102;15.440;2023-12-20T03:41:44;2.22;;;1.65;;
3667;SDS011;24099;47.102;15.440;2023-12-20T03:44:11;5.45;;;1.85;;
3667;SDS011;24099;47.102;15.440;2023-12-20T03:46:39;5.07;;;1.40;;
3667;SDS011;24099;47.102;15.440;2023-12-20T03:49:08;6.55;;;1.73;;
3667;SDS011;24099;47.102;15.440;2023-12-20T03:51:36;2.13;;;1.42;;
3667;SDS011;24099;47.102;15.440;2023-12-20T03:54:04;6.03;;;1.60;;
3667;SDS011;24099;47.102;15.440;2023-12-20T03:56:32;5.47;;;1.85;;
3667;SDS011;24099;47.102;15.440;2023-12-20T03:58:59;2.83;;;1.55;;
3667;SDS011;24099;47.102;15.440;2023-12-20T04:01:27;3.00;;;1.60;;
3667;SDS011;24099;47.102;15.440;2023-12-20T04:03:54;4.00;;;1.75;;
3667;SDS011;24099;47.102;15.440;2023-12-20T04:06:23;2.38;;;1.90;;
3667;SDS011;24099;47.102;15.440;2023-12-20T04:08:51;2.53;;;1.75;;
3667;SDS011;24099;47.102;15.440;2023-12-20T04:11:19;2.28;;;1.65;;
3667;SDS011;24099;47.102;15.440;2023-12-20T04:13:47;2.97;;;1.75;;
3667;SDS011;24099;47.102;15.440;2023-12-20T04:16:14;3.42;;;2.03;;
3667;SDS011;24099;47.102;15.440;2023-12-20T04:18:42;3.83;;;1.80;;
3667;SDS011;24099;47.102;15.440;2023-12-20T04:21:09;3.38;;;1.63;;
3667;SDS011;24099;47.102;15.440;2023-12-20T04:23:38;2.20;;;1.63;;
3667;SDS011;24099;47.102;15.440;2023-12-20T04:26:06;2.58;;;1.38;;
3667;SDS011;24099;47.102;15.440;2023-12-20T04:28:33;4.65;;;1.75;;
3667;SDS011;24099;47.102;15.440;2023-12-20T04:31:01;3.63;;;2.00;;
3667;SDS011;24099;47.102;15.440;2023-12-20T04:33:28;3.33;;;1.52;;
3667;SDS011;24099;47.102;15.440;2023-12-20T04:35:56;3.47;;;1.42;;
3667;SDS011;24099;47.102;15.440;2023-12-20T04:38:23;1.88;;;1.60;;
3667;SDS011;24099;47.102;15.440;2023-12-20T04:40:52;4.03;;;1.90;;
3667;SDS011;24099;47.102;15.440;2023-12-20T04:43:20;2.15;;;1.55;;
3667;SDS011;24099;47.102;15.440;2023-12-20T04:45:47;3.55;;;1.48;;
3667;SDS011;24099;47.102;15.440;2023-12-20T04:48:15;6.32;;;1.42;;
3667;SDS011;24099;47.102;15.440;2023-12-20T04:50:42;2.10;;;1.67;;
3667;SDS011;24099;47.102;15.440;2023-12-20T04:53:10;1.75;;;1.20;;
3667;SDS011;24099;47.102;15.440;2023-12-20T04:55:37;5.07;;;2.05;;
3667;SDS011;24099;47.102;15.440;2023-12-20T04:58:06;3.63;;;1.52;;
3667;SDS011;24099;47.102;15.440;2023-12-20T05:00:34;4.35;;;1.42;;
3667;SDS011;24099;47.102;15.440;2023-12-20T05:03:01;1.58;;;1.48;;
3667;SDS011;24099;47.102;15.440;2023-12-20T05:05:29;7.88;;;2.30;;
3667;SDS011;24099;47.102;15.440;2023-12-20T05:07:57;2.28;;;1.55;;
3667;SDS011;24099;47.102;15.440;2023-12-20T05:10:24;4.22;;;1.52;;
3667;SDS011;24099;47.102;15.440;2023-12-20T05:12:54;4.28;;;1.92;;
3667;SDS011;24099;47.102;15.440;2023-12-20T05:15:22;1.45;;;1.20;;
3667;SDS011;24099;47.102;15.440;2023-12-20T05:17:50;4.07;;;1.80;;
3667;SDS011;24099;47.102;15.440;2023-12-20T05:20:18;2.85;;;1.75;;
3667;SDS011;24099;47.102;15.440;2023-12-20T05:22:45;3.67;;;1.83;;
3667;SDS011;24099;47.102;15.440;2023-12-20T05:25:13;3.30;;;1.40;;
3667;SDS011;24099;47.102;15.440;2023-12-20T05:27:41;2.33;;;1.95;;
3667;SDS011;24099;47.102;15.440;2023-12-20T05:30:08;2.90;;;1.50;;
3667;SDS011;24099;47.102;15.440;2023-12-20T05:32:38;2.65;;;1.20;;
3667;SDS011;24099;47.102;15.440;2023-12-20T05:35:06;6.60;;;1.98;;
3667;SDS011;24099;47.102;15.440;2023-12-20T05:37:34;1.90;;;1.48;;
3667;SDS011;24099;47.102;15.440;2023-12-20T05:40:01;2.80;;;1.42;;
3667;SDS011;24099;47.102;15.440;2023-12-20T05:42:29;2.00;;;1.50;;
3667;SDS011;24099;47.102;15.440;2023-12-20T05:44:57;3.92;;;1.73;;
3667;SDS011;24099;47.102;15.440;2023-12-20T05:47:25;4.35;;;1.70;;
3667;SDS011;24099;47.102;15.440;2023-12-20T05:49:54;6.22;;;1.70;;
3667;SDS011;24099;47.102;15.440;2023-12-20T05:52:21;3.30;;;1.40;;
3667;SDS011;24099;47.102;15.440;2023-12-20T05:54:49;5.57;;;1.98;;
3667;SDS011;24099;47.102;15.440;2023-12-20T05:57:17;1.60;;;1.30;;
3667;SDS011;24099;47.102;15.440;2023-12-20T05:59:44;3.15;;;1.65;;
3667;SDS011;24099;47.102;15.440;2023-12-20T06:02:12;5.70;;;1.70;;
3667;SDS011;24099;47.102;15.440;2023-12-20T06:04:41;3.00;;;1.83;;
3667;SDS011;24099;47.102;15.440;2023-12-20T06:07:12;2.78;;;1.40;;
3667;SDS011;24099;47.102;15.440;2023-12-20T06:09:40;2.13;;;1.70;;
3667;SDS011;24099;47.102;15.440;2023-12-20T06:12:08;3.95;;;1.67;;
3667;SDS011;24099;47.102;15.440;2023-12-20T06:14:36;3.72;;;1.80;;
3667;SDS011;24099;47.102;15.440;2023-12-20T06:17:03;4.68;;;2.03;;
3667;SDS011;24099;47.102;15.440;2023-12-20T06:19:31;2.83;;;1.48;;
3667;SDS011;24099;47.102;15.440;2023-12-20T06:21:58;3.25;;;1.92;;
3667;SDS011;24099;47.102;15.440;2023-12-20T06:24:27;2.75;;;1.65;;
3667;SDS011;24099;47.102;15.440;2023-12-20T06:26:55;4.22;;;1.33;;
3667;SDS011;24099;47.102;15.440;2023-12-20T06:29:22;3.33;;;1.60;;
3667;SDS011;24099;47.102;15.440;2023-12-20T06:31:50;3.08;;;2.00;;
3667;SDS011;24099;47.102;15.440;2023-12-20T06:34:17;1.45;;;1.25;;
3667;SDS011;24099;47.102;15.440;2023-12-20T06:36:45;2.58;;;1.60;;
3667;SDS011;24099;47.102;15.440;2023-12-20T06:39:12;2.80;;;1.27;;
3667;SDS011;24099;47.102;15.440;2023-12-20T06:41:41;5.32;;;1.73;;
3667;SDS011;24099;47.102;15.440;2023-12-20T06:44:09;4.57;;;1.63;;
3667;SDS011;24099;47.102;15.440;2023-12-20T06:46:36;4.50;;;2.47;;
3667;SDS011;24099;47.102;15.440;2023-12-20T06:49:04;3.30;;;1.70;;
3667;SDS011;24099;47.102;15.440;2023-12-20T06:51:33;1.83;;;1.42;;
3667;SDS011;24099;47.102;15.440;2023-12-20T06:54:45;3.97;;;1.65;;
3667;SDS011;24099;47.102;15.440;2023-12-20T07:00:17;4.40;;;1.33;;
3667;SDS011;24099;47.102;15.440;2023-12-20T07:02:46;5.18;;;2.38;;
3667;SDS011;24099;47.102;15.440;2023-12-20T07:05:16;4.47;;;1.75;;
3667;SDS011;24099;47.102;15.440;2023-12-20T07:07:45;2.50;;;1.75;;
3667;SDS011;24099;47.102;15.440;2023-12-20T07:10:13;3.80;;;1.80;;
3667;SDS011;24099;47.102;15.440;2023-12-20T07:12:40;13.75;;;1.80;;
3667;SDS011;24099;47.102;15.440;2023-12-20T07:15:09;3.55;;;1.90;;
3667;SDS011;24099;47.102;15.440;2023-12-20T07:17:38;3.35;;;1.60;;
3667;SDS011;24099;47.102;15.440;2023-12-20T07:20:07;3.58;;;1.60;;
3667;SDS011;24099;47.102;15.440;2023-12-20T07:22:36;2.75;;;1.83;;
3667;SDS011;24099;47.102;15.440;2023-12-20T07:25:04;4.05;;;1.83;;
3667;SDS011;24099;47.102;15.440;2023-12-20T07:27:32;2.60;;;1.40;;
3667;SDS011;24099;47.102;15.440;2023-12-20T07:30:00;2.22;;;1.60;;
3667;SDS011;24099;47.102;15.440;2023-12-20T07:32:28;2.85;;;1.33;;
3667;SDS011;24099;47.102;15.440;2023-12-20T07:34:57;2.72;;;1.67;;
3667;SDS011;24099;47.102;15.440;2023-12-20T07:37:24;1.63;;;1.00;;
3667;SDS011;24099;47.102;15.440;2023-12-20T07:39:52;2.78;;;1.50;;
3667;SDS011;24099;47.102;15.440;2023-12-20T07:42:19;1.60;;;1.27;;
3667;SDS011;24099;47.102;15.440;2023-12-20T07:44:47;2.40;;;1.50;;
3667;SDS011;24099;47.102;15.440;2023-12-20T07:47:15;3.83;;;1.60;;
3667;SDS011;24099;47.102;15.440;2023-12-20T07:49:46;2.40;;;1.48;;
3667;SDS011;24099;47.102;15.440;2023-12-20T07:52:16;3.13;;;1.67;;
3667;SDS011;24099;47.102;15.440;2023-12-20T07:54:43;6.20;;;2.00;;
3667;SDS011;24099;47.102;15.440;2023-12-20T07:57:11;3.47;;;1.92;;
3667;SDS011;24099;47.102;15.440;2023-12-20T07:59:39;5.45;;;2.78;;
3667;SDS011;24099;47.102;15.440;2023-12-20T08:02:06;4.18;;;1.90;;
3667;SDS011;24099;47.102;15.440;2023-12-20T08:04:34;2.30;;;1.55;;
3667;SDS011;24099;47.102;15.440;2023-12-20T08:07:01;3.95;;;1.52;;
3667;SDS011;24099;47.102;15.440;2023-12-20T08:09:30;3.85;;;1.83;;
3667;SDS011;24099;47.102;15.440;2023-12-20T08:11:59;1.77;;;1.40;;
3667;SDS011;24099;47.102;15.440;2023-12-20T08:14:26;3.60;;;1.77;;
3667;SDS011;24099;47.102;15.440;2023-12-20T08:16:54;3.65;;;1.42;;
3667;SDS011;24099;47.102;15.440;2023-12-20T08:19:21;5.07;;;1.77;;
3667;SDS011;24099;47.102;15.440;2023-12-20T08:21:49;2.17;;;1.55;;
3667;SDS011;24099;47.102;15.440;2023-12-20T08:24:16;3.40;;;1.95;;
3667;SDS011;24099;47.102;15.440;2023-12-20T08:26:45;6.65;;;1.80;;
3667;SDS011;24099;47.102;15.440;2023-12-20T08:29:13;6.35;;;3.58;;
3667;SDS011;24099;47.102;15.440;2023-12-20T08:31:41;4.90;;;1.50;;
3667;SDS011;24099;47.102;15.440;2023-12-20T08:34:08;8.27;;;1.77;;
3667;SDS011;24099;47.102;15.440;2023-12-20T08:36:38;8.13;;;3.22;;
3667;SDS011;24099;47.102;15.440;2023-12-20T08:39:06;5.07;;;2.33;;
3667;SDS011;24099;47.102;15.440;2023-12-20T08:41:34;1.20;;;1.08;;
3667;SDS011;24099;47.102;15.440;2023-12-20T08:44:03;3.40;;;1.90;;
3667;SDS011;24099;47.102;15.440;2023-12-20T08:46:31;3.25;;;1.90;;
3667;SDS011;24099;47.102;15.440;2023-12-20T08:48:59;2.92;;;1.63;;
3667;SDS011;24099;47.102;15.440;2023-12-20T08:51:27;5.88;;;1.42;;
3667;SDS011;24099;47.102;15.440;2023-12-20T08:53:54;2.85;;;1.67;;
3667;SDS011;24099;47.102;15.440;2023-12-20T08:56:22;4.50;;;2.75;;
3667;SDS011;24099;47.102;15.440;2023-12-20T08:58:49;12.90;;;5.72;;
3667;SDS011;24099;47.102;15.440;2023-12-20T09:01:18;5.47;;;2.30;;
3667;SDS011;24099;47.102;15.440;2023-12-20T09:03:45;4.20;;;2.30;;
3667;SDS011;24099;47.102;15.440;2023-12-20T09:06:13;9.45;;;3.10;;
3667;SDS011;24099;47.102;15.440;2023-12-20T09:08:41;4.78;;;2.60;;
3667;SDS011;24099;47.102;15.440;2023-12-20T09:11:08;3.38;;;2.03;;
3667;SDS011;24099;47.102;15.440;2023-12-20T09:13:36;2.58;;;1.77;;
3667;SDS011;24099;47.102;15.440;2023-12-20T09:16:03;3.63;;;1.70;;
3667;SDS011;24099;47.102;15.440;2023-12-20T09:18:33;4.10;;;1.75;;
3667;SDS011;24099;47.102;15.440;2023-12-20T09:21:01;3.28;;;1.92;;
3667;SDS011;24099;47.102;15.440;2023-12-20T09:23:29;3.72;;;2.28;;
3667;SDS011;24099;47.102;15.440;2023-12-20T09:25:56;4.07;;;2.05;;
3667;SDS011;24099;47.102;15.440;2023-12-20T09:28:24;2.97;;;1.83;;
3667;SDS011;24099;47.102;15.440;2023-12-20T09:30:51;5.38;;;1.92;;
3667;SDS011;24099;47.102;15.440;2023-12-20T09:33:19;6.25;;;3.55;;
3667;SDS011;24099;47.102;15.440;2023-12-20T09:35:48;4.25;;;2.15;;
3667;SDS011;24099;47.102;15.440;2023-12-20T09:38:15;5.82;;;2.55;;
3667;SDS011;24099;47.102;15.440;2023-12-20T09:40:43;6.72;;;3.25;;
3667;SDS011;24099;47.102;15.440;2023-12-20T09:43:10;12.15;;;2.53;;
3667;SDS011;24099;47.102;15.440;2023-12-20T09:45:40;9.65;;;3.15;;
3667;SDS011;24099;47.102;15.440;2023-12-20T09:48:12;7.40;;;3.25;;
3667;SDS011;24099;47.102;15.440;2023-12-20T09:50:40;12.52;;;3.40;;
3667;SDS011;24099;47.102;15.440;2023-12-20T09:53:10;6.53;;;3.17;;
3667;SDS011;24099;47.102;15.440;2023-12-20T09:55:41;7.35;;;3.63;;
3667;SDS011;24099;47.102;15.440;2023-12-20T09:58:08;8.15;;;3.42;;
3667;SDS011;24099;47.102;15.440;2023-12-20T10:00:36;9.38;;;3.10;;
3667;SDS011;24099;47.102;15.440;2023-12-20T10:03:04;7.25;;;3.47;;
3667;SDS011;24099;47.102;15.440;2023-12-20T10:05:34;10.75;;;3.85;;
3667;SDS011;24099;47.102;15.440;2023-12-20T10:08:02;13.07;;;3.97;;
3667;SDS011;24099;47.102;15.440;2023-12-20T10:10:31;9.05;;;3.72;;
3667;SDS011;24099;47.102;15.440;2023-12-20T10:13:02;9.15;;;3.75;;
3667;SDS011;24099;47.102;15.440;2023-12-20T10:15:31;15.50;;;3.92;;
3667;SDS011;24099;47.102;15.440;2023-12-20T10:17:59;7.82;;;2.97;;
3667;SDS011;24099;47.102;15.440;2023-12-20T10:20:27;8.95;;;3.35;;
3667;SDS011;24099;47.102;15.440;2023-12-20T10:22:55;7.85;;;3.63;;
3667;SDS011;24099;47.102;15.440;2023-12-20T10:25:23;9.48;;;3.33;;
3667;SDS011;24099;47.102;15.440;2023-12-20T10:30:39;11.30;;;3.60;;
3667;SDS011;24099;47.102;15.440;2023-12-20T10:33:07;8.88;;;3.50;;
3667;SDS011;24099;47.102;15.440;2023-12-20T10:35:35;9.80;;;2.95;;
3667;SDS011;24099;47.102;15.440;2023-12-20T10:38:04;7.10;;;3.15;;
3667;SDS011;24099;47.102;15.440;2023-12-20T10:40:34;7.97;;;2.67;;
3667;SDS011;24099;47.102;15.440;2023-12-20T10:43:03;4.82;;;2.55;;
3667;SDS011;24099;47.102;15.440;2023-12-20T10:45:32;6.72;;;2.70;;
3667;SDS011;24099;47.102;15.440;2023-12-20T10:48:01;8.63;;;2.95;;
3667;SDS011;24099;47.102;15.440;2023-12-20T10:50:29;6.45;;;2.83;;
3667;SDS011;24099;47.102;15.440;2023-12-20T10:52:57;7.50;;;2.63;;
3667;SDS011;24099;47.102;15.440;2023-12-20T10:55:26;6.25;;;2.50;;
3667;SDS011;24099;47.102;15.440;2023-12-20T10:57:54;7.75;;;2.55;;
3667;SDS011;24099;47.102;15.440;2023-12-20T11:00:36;13.02;;;2.75;;
3667;SDS011;24099;47.102;15.440;2023-12-20T11:03:08;4.88;;;2.60;;
3667;SDS011;24099;47.102;15.440;2023-12-20T11:05:38;17.08;;;3.65;;
3667;SDS011;24099;47.102;15.440;2023-12-20T11:08:13;4.43;;;2.38;;
3667;SDS011;24099;47.102;15.440;2023-12-20T11:10:48;5.13;;;2.08;;
3667;SDS011;24099;47.102;15.440;2023-12-20T11:13:22;4.05;;;1.95;;
3667;SDS011;24099;47.102;15.440;2023-12-20T11:15:55;6.95;;;2.88;;
3667;SDS011;24099;47.102;15.440;2023-12-20T11:18:28;7.90;;;2.67;;
3667;SDS011;24099;47.102;15.440;2023-12-20T11:20:59;8.68;;;2.65;;
3667;SDS011;24099;47.102;15.440;2023-12-20T11:23:29;8.85;;;2.22;;
3667;SDS011;24099;47.102;15.440;2023-12-20T11:25:59;5.82;;;2.72;;
3667;SDS011;24099;47.102;15.440;2023-12-20T11:28:27;6.20;;;2.85;;
3667;SDS011;24099;47.102;15.440;2023-12-20T11:30:57;9.63;;;3.53;;
3667;SDS011;24099;47.102;15.440;2023-12-20T11:33:29;9.07;;;3.47;;
3667;SDS011;24099;47.102;15.440;2023-12-20T11:35:58;6.32;;;2.83;;
3667;SDS011;24099;47.102;15.440;2023-12-20T11:38:27;8.05;;;3.13;;
3667;SDS011;24099;47.102;15.440;2023-12-20T11:41:04;9.35;;;3.38;;
3667;SDS011;24099;47.102;15.440;2023-12-20T11:43:34;8.50;;;2.72;;
3667;SDS011;24099;47.102;15.440;2023-12-20T11:46:05;6.35;;;2.80;;
3667;SDS011;24099;47.102;15.440;2023-12-20T11:48:34;6.45;;;2.97;;
3667;SDS011;24099;47.102;15.440;2023-12-20T11:51:08;12.68;;;2.67;;
3667;SDS011;24099;47.102;15.440;2023-12-20T11:53:36;5.45;;;2.80;;
3667;SDS011;24099;47.102;15.440;2023-12-20T11:56:04;6.82;;;3.28;;
3667;SDS011;24099;47.102;15.440;2023-12-20T11:58:33;6.85;;;2.90;;
3667;SDS011;24099;47.102;15.440;2023-12-20T12:01:00;4.75;;;2.83;;
3667;SDS011;24099;47.102;15.440;2023-12-20T12:03:30;14.15;;;7.03;;
3667;SDS011;24099;47.102;15.440;2023-12-20T12:05:58;10.02;;;3.80;;
3667;SDS011;24099;47.102;15.440;2023-12-20T12:08:26;6.57;;;2.88;;
3667;SDS011;24099;47.102;15.440;2023-12-20T12:10:53;9.68;;;3.38;;
3667;SDS011;24099;47.102;15.440;2023-12-20T12:13:21;6.50;;;2.60;;
3667;SDS011;24099;47.102;15.440;2023-12-20T12:15:52;5.95;;;3.00;;
3667;SDS011;24099;47.102;15.440;2023-12-20T12:18:20;10.57;;;2.35;;
3667;SDS011;24099;47.102;15.440;2023-12-20T12:20:49;7.72;;;2.50;;
3667;SDS011;24099;47.102;15.440;2023-12-20T12:23:22;6.65;;;2.47;;
3667;SDS011;24099;47.102;15.440;2023-12-20T12:25:50;4.82;;;2.30;;
3667;SDS011;24099;47.102;15.440;2023-12-20T12:28:17;4.82;;;2.17;;
3667;SDS011;24099;47.102;15.440;2023-12-20T12:30:55;7.15;;;2.42;;
3667;SDS011;24099;47.102;15.440;2023-12-20T12:33:24;3.35;;;2.15;;
3667;SDS011;24099;47.102;15.440;2023-12-20T12:35:53;8.25;;;2.53;;
3667;SDS011;24099;47.102;15.440;2023-12-20T12:38:21;3.60;;;1.92;;
3667;SDS011;24099;47.102;15.440;2023-12-20T12:40:50;7.57;;;2.45;;
3667;SDS011;24099;47.102;15.440;2023-12-20T12:43:18;6.30;;;2.30;;
3667;SDS011;24099;47.102;15.440;2023-12-20T12:45:47;6.50;;;2.42;;
3667;SDS011;24099;47.102;15.440;2023-12-20T12:48:15;7.63;;;2.40;;
3667;SDS011;24099;47.102;15.440;2023-12-20T12:50:43;4.43;;;2.38;;
3667;SDS011;24099;47.102;15.440;2023-12-20T12:53:13;5.63;;;2.47;;
3667;SDS011;24099;47.102;15.440;2023-12-20T12:55:40;6.20;;;2.20;;
3667;SDS011;24099;47.102;15.440;2023-12-20T12:58:08;5.70;;;2.10;;
3667;SDS011;24099;47.102;15.440;2023-12-20T13:00:36;9.15;;;2.80;;
3667;SDS011;24099;47.102;15.440;2023-12-20T13:03:03;7.60;;;3.03;;
3667;SDS011;24099;47.102;15.440;2023-12-20T13:05:31;13.40;;;3.85;;
3667;SDS011;24099;47.102;15.440;2023-12-20T13:07:58;5.60;;;2.90;;
3667;SDS011;24099;47.102;15.440;2023-12-20T13:10:27;12.60;;;3.85;;
3667;SDS011;24099;47.102;15.440;2023-12-20T13:12:55;7.22;;;3.38;;
3667;SDS011;24099;47.102;15.440;2023-12-20T13:15:22;12.43;;;3.28;;
3667;SDS011;24099;47.102;15.440;2023-12-20T13:17:50;11.50;;;3.70;;
3667;SDS011;24099;47.102;15.440;2023-12-20T13:20:17;9.10;;;3.88;;
3667;SDS011;24099;47.102;15.440;2023-12-20T13:22:45;11.93;;;4.63;;
3667;SDS011;24099;47.102;15.440;2023-12-20T13:25:13;11.52;;;4.18;;
3667;SDS011;24099;47.102;15.440;2023-12-20T13:27:42;10.00;;;3.83;;
3667;SDS011;24099;47.102;15.440;2023-12-20T13:30:10;10.93;;;3.85;;
3667;SDS011;24099;47.102;15.440;2023-12-20T13:32:37;11.73;;;4.32;;
3667;SDS011;24099;47.102;15.440;2023-12-20T13:35:05;13.57;;;3.70;;
3667;SDS011;24099;47.102;15.440;2023-12-20T13:37:33;10.10;;;3.60;;
3667;SDS011;24099;47.102;15.440;2023-12-20T13:40:00;9.07;;;3.78;;
3667;SDS011;24099;47.102;15.440;2023-12-20T13:42:29;11.18;;;3.67;;
3667;SDS011;24099;47.102;15.440;2023-12-20T13:44:58;9.57;;;4.32;;
3667;SDS011;24099;47.102;15.440;2023-12-20T13:47:26;9.98;;;4.97;;
3667;SDS011;24099;47.102;15.440;2023-12-20T13:49:54;11.77;;;4.10;;
3667;SDS011;24099;47.102;15.440;2023-12-20T13:52:22;10.68;;;3.72;;
3667;SDS011;24099;47.102;15.440;2023-12-20T13:54:49;7.80;;;3.60;;
3667;SDS011;24099;47.102;15.440;2023-12-20T13:57:17;8.10;;;3.42;;
3667;SDS011;24099;47.102;15.440;2023-12-20T13:59:44;14.27;;;3.85;;
3667;SDS011;24099;47.102;15.440;2023-12-20T14:02:13;14.48;;;3.72;;
3667;SDS011;24099;47.102;15.440;2023-12-20T14:04:41;14.60;;;3.60;;
3667;SDS011;24099;47.102;15.440;2023-12-20T14:07:09;11.15;;;4.10;;
3667;SDS011;24099;47.102;15.440;2023-12-20T14:09:36;10.55;;;3.83;;
3667;SDS011;24099;47.102;15.440;2023-12-20T14:12:04;6.82;;;3.70;;
3667;SDS011;24099;47.102;15.440;2023-12-20T14:14:34;11.60;;;3.45;;
3667;SDS011;24099;47.102;15.440;2023-12-20T14:17:01;6.57;;;3.10;;
3667;SDS011;24099;47.102;15.440;2023-12-20T14:19:33;10.05;;;3.72;;
3667;SDS011;24099;47.102;15.440;2023-12-20T14:22:00;12.93;;;3.55;;
3667;SDS011;24099;47.102;15.440;2023-12-20T14:24:29;10.95;;;3.15;;
3667;SDS011;24099;47.102;15.440;2023-12-20T14:26:57;7.50;;;3.08;;
3667;SDS011;24099;47.102;15.440;2023-12-20T14:29:25;7.53;;;2.80;;
3667;SDS011;24099;47.102;15.440;2023-12-20T14:31:52;12.13;;;3.00;;
3667;SDS011;24099;47.102;15.440;2023-12-20T14:34:20;12.95;;;3.42;;
3667;SDS011;24099;47.102;15.440;2023-12-20T14:36:50;9.32;;;2.67;;
3667;SDS011;24099;47.102;15.440;2023-12-20T14:39:18;9.48;;;2.85;;
3667;SDS011;24099;47.102;15.440;2023-12-20T14:41:46;6.55;;;2.80;;
3667;SDS011;24099;47.102;15.440;2023-12-20T14:44:13;6.28;;;2.55;;
3667;SDS011;24099;47.102;15.440;2023-12-20T14:46:42;13.23;;;3.20;;
3667;SDS011;24099;47.102;15.440;2023-12-20T14:49:09;6.93;;;2.90;;
3667;SDS011;24099;47.102;15.440;2023-12-20T14:51:37;7.05;;;3.15;;
3667;SDS011;24099;47.102;15.440;2023-12-20T14:54:06;3.95;;;2.30;;
3667;SDS011;24099;47.102;15.440;2023-12-20T14:56:35;9.63;;;2.53;;
3667;SDS011;24099;47.102;15.440;2023-12-20T14:59:03;7.38;;;2.55;;